sensor_id;sensor_type;location;lat;lon;timestamp;pressure;altitude;pressure_sealevel;temperature;humidity
4133;BME280;2080;51.038;7.008;2023-01-28T00:00:14;78191.28;;;-142.53;100.00
4133;BME280;2080;51.038;7.008;2023-01-28T00:02:39;78197.09;;;-142.53;100.00
4133;BME280;2080;51.038;7.008;2023-01-28T00:05:07;78218.47;;;-142.53;100.00
4133;BME280;2080;51.038;7.008;2023-01-28T00:07:35;78239.88;;;-142.53;100.00
4133;BME280;2080;51.038;7.008;2023-01-28T00:10:05;78247.63;;;-142.53;100.00
4133;BME280;2080;51.038;7.008;2023-01-28T00:12:30;78232.09;;;-142.53;100.00
4133;BME280;2080;51.038;7.008;2023-01-28T00:14:56;78230.16;;;-142.53;100.00
4133;BME280;2080;51.038;7.008;2023-01-28T00:17:23;78228.19;;;-142.53;100.00
4133;BME280;2080;51.038;7.008;2023-01-28T00:19:49;78230.16;;;-142.53;100.00
4133;BME280;2080;51.038;7.008;2023-01-28T00:22:14;78228.19;;;-142.53;100.00
4133;BME280;2080;51.038;7.008;2023-01-28T00:24:40;78239.88;;;-142.53;100.00
4133;BME280;2080;51.038;7.008;2023-01-28T00:27:05;78247.63;;;-142.53;100.00
4133;BME280;2080;51.038;7.008;2023-01-28T00:29:30;78267.06;;;-142.53;100.00
4133;BME280;2080;51.038;7.008;2023-01-28T00:31:55;78263.19;;;-142.53;100.00
4133;BME280;2080;51.038;7.008;2023-01-28T00:34:23;78263.19;;;-142.53;100.00
4133;BME280;2080;51.038;7.008;2023-01-28T00:36:49;78267.06;;;-142.53;100.00
4133;BME280;2080;51.038;7.008;2023-01-28T00:39:22;78276.78;;;-142.53;100.00
4133;BME280;2080;51.038;7.008;2023-01-28T00:41:47;78267.06;;;-142.53;100.00
4133;BME280;2080;51.038;7.008;2023-01-28T00:44:13;78257.34;;;-142.53;100.00
4133;BME280;2080;51.038;7.008;2023-01-28T00:46:40;78251.53;;;-142.53;100.00
4133;BME280;2080;51.038;7.008;2023-01-28T00:49:06;78267.06;;;-142.53;100.00
4133;BME280;2080;51.038;7.008;2023-01-28T00:51:31;78274.84;;;-142.53;100.00
4133;BME280;2080;51.038;7.008;2023-01-28T00:53:57;78278.72;;;-142.53;100.00
4133;BME280;2080;51.038;7.008;2023-01-28T00:56:22;78282.63;;;-142.53;100.00
4133;BME280;2080;51.038;7.008;2023-01-28T00:58:48;78272.91;;;-142.53;100.00
4133;BME280;2080;51.038;7.008;2023-01-28T01:01:19;78280.69;;;-142.53;100.00
4133;BME280;2080;51.038;7.008;2023-01-28T01:03:45;78274.84;;;-142.53;100.00
4133;BME280;2080;51.038;7.008;2023-01-28T01:06:13;78278.72;;;-142.53;100.00
4133;BME280;2080;51.038;7.008;2023-01-28T01:08:44;78294.28;;;-142.53;100.00
4133;BME280;2080;51.038;7.008;2023-01-28T01:11:17;78309.81;;;-142.53;100.00
4133;BME280;2080;51.038;7.008;2023-01-28T01:13:43;78317.59;;;-142.53;100.00
4133;BME280;2080;51.038;7.008;2023-01-28T01:16:13;78331.19;;;-142.53;100.00
4133;BME280;2080;51.038;7.008;2023-01-28T01:18:41;78338.97;;;-142.53;100.00
4133;BME280;2080;51.038;7.008;2023-01-28T01:21:11;78350.63;;;-142.53;100.00
4133;BME280;2080;51.038;7.008;2023-01-28T01:23:37;78372.00;;;-142.53;100.00
4133;BME280;2080;51.038;7.008;2023-01-28T01:26:08;78372.00;;;-142.53;100.00
4133;BME280;2080;51.038;7.008;2023-01-28T01:28:34;78372.00;;;-142.53;100.00
4133;BME280;2080;51.038;7.008;2023-01-28T01:31:07;78348.69;;;-142.53;100.00
4133;BME280;2080;51.038;7.008;2023-01-28T01:33:37;78354.53;;;-142.53;100.00
4133;BME280;2080;51.038;7.008;2023-01-28T01:36:04;78375.91;;;-142.53;100.00
4133;BME280;2080;51.038;7.008;2023-01-28T01:38:32;78385.63;;;-142.53;100.00
4133;BME280;2080;51.038;7.008;2023-01-28T01:40:58;78387.56;;;-142.53;100.00
4133;BME280;2080;51.038;7.008;2023-01-28T01:43:57;78395.34;;;-142.53;100.00
4133;BME280;2080;51.038;7.008;2023-01-28T01:46:44;78393.41;;;-142.53;100.00
4133;BME280;2080;51.038;7.008;2023-01-28T01:51:53;78403.13;;;-142.53;100.00
4133;BME280;2080;51.038;7.008;2023-01-28T01:54:22;78414.78;;;-142.53;100.00
4133;BME280;2080;51.038;7.008;2023-01-28T01:56:49;78426.44;;;-142.53;100.00
4133;BME280;2080;51.038;7.008;2023-01-28T01:59:23;78414.78;;;-142.53;100.00
4133;BME280;2080;51.038;7.008;2023-01-28T02:01:52;78391.44;;;-142.53;100.00
4133;BME280;2080;51.038;7.008;2023-01-28T02:04:26;78405.06;;;-142.53;100.00
4133;BME280;2080;51.038;7.008;2023-01-28T02:06:54;78405.06;;;-142.53;100.00
4133;BME280;2080;51.038;7.008;2023-01-28T02:09:24;78387.56;;;-142.53;100.00
4133;BME280;2080;51.038;7.008;2023-01-28T02:12:00;78410.88;;;-142.53;100.00
4133;BME280;2080;51.038;7.008;2023-01-28T02:14:28;78424.50;;;-142.53;100.00
4133;BME280;2080;51.038;7.008;2023-01-28T02:16:59;78430.31;;;-142.53;100.00
4133;BME280;2080;51.038;7.008;2023-01-28T02:19:32;78441.97;;;-142.53;100.00
4133;BME280;2080;51.038;7.008;2023-01-28T02:22:06;78463.34;;;-142.53;100.00
4133;BME280;2080;51.038;7.008;2023-01-28T02:32:18;78486.69;;;-142.53;100.00
4133;BME280;2080;51.038;7.008;2023-01-28T02:37:24;78471.13;;;-142.53;100.00
4133;BME280;2080;51.038;7.008;2023-01-28T02:39:55;78473.06;;;-142.53;100.00
4133;BME280;2080;51.038;7.008;2023-01-28T02:42:27;78453.66;;;-142.53;100.00
4133;BME280;2080;51.038;7.008;2023-01-28T02:44:54;78449.75;;;-142.53;100.00
4133;BME280;2080;51.038;7.008;2023-01-28T02:47:19;78441.97;;;-142.53;100.00
4133;BME280;2080;51.038;7.008;2023-01-28T02:50:25;78441.97;;;-142.53;100.00
4133;BME280;2080;51.038;7.008;2023-01-28T02:58:43;78387.56;;;-142.53;100.00
4133;BME280;2080;51.038;7.008;2023-01-28T03:04:10;78412.81;;;-142.53;100.00
4133;BME280;2080;51.038;7.008;2023-01-28T03:06:53;78410.88;;;-142.53;100.00
4133;BME280;2080;51.038;7.008;2023-01-28T03:09:21;78399.22;;;-142.53;100.00
4133;BME280;2080;51.038;7.008;2023-01-28T03:14:38;78410.88;;;-142.53;100.00
4133;BME280;2080;51.038;7.008;2023-01-28T03:20:26;78414.78;;;-142.53;100.00
4133;BME280;2080;51.038;7.008;2023-01-28T03:23:20;78407.00;;;-142.53;100.00
4133;BME280;2080;51.038;7.008;2023-01-28T03:26:09;78399.22;;;-142.53;100.00
4133;BME280;2080;51.038;7.008;2023-01-28T03:28:57;78383.69;;;-142.53;100.00
4133;BME280;2080;51.038;7.008;2023-01-28T03:31:44;78385.63;;;-142.53;100.00
4133;BME280;2080;51.038;7.008;2023-01-28T03:34:28;78391.44;;;-142.53;100.00
4133;BME280;2080;51.038;7.008;2023-01-28T03:37:15;78362.31;;;-142.53;100.00
4133;BME280;2080;51.038;7.008;2023-01-28T03:39:40;78368.13;;;-142.53;100.00
4133;BME280;2080;51.038;7.008;2023-01-28T03:42:07;78352.59;;;-142.53;100.00
4133;BME280;2080;51.038;7.008;2023-01-28T03:44:33;78333.16;;;-142.53;100.00
4133;BME280;2080;51.038;7.008;2023-01-28T03:47:43;78321.47;;;-142.53;100.00
4133;BME280;2080;51.038;7.008;2023-01-28T03:50:09;78309.81;;;-142.53;100.00
4133;BME280;2080;51.038;7.008;2023-01-28T03:52:36;78325.38;;;-142.53;100.00
4133;BME280;2080;51.038;7.008;2023-01-28T03:55:02;78340.91;;;-142.53;100.00
4133;BME280;2080;51.038;7.008;2023-01-28T03:57:37;78317.59;;;-142.53;100.00
4133;BME280;2080;51.038;7.008;2023-01-28T04:00:03;78313.72;;;-142.53;100.00
4133;BME280;2080;51.038;7.008;2023-01-28T04:02:28;78329.25;;;-142.53;100.00
4133;BME280;2080;51.038;7.008;2023-01-28T04:04:54;78317.59;;;-142.53;100.00
4133;BME280;2080;51.038;7.008;2023-01-28T04:07:19;78329.25;;;-142.53;100.00
4133;BME280;2080;51.038;7.008;2023-01-28T04:09:47;78333.16;;;-142.53;100.00
4133;BME280;2080;51.038;7.008;2023-01-28T04:12:12;78337.03;;;-142.53;100.00
4133;BME280;2080;51.038;7.008;2023-01-28T04:14:38;78333.16;;;-142.53;100.00
4133;BME280;2080;51.038;7.008;2023-01-28T04:17:04;78325.38;;;-142.53;100.00
4133;BME280;2080;51.038;7.008;2023-01-28T04:19:34;78313.72;;;-142.53;100.00
4133;BME280;2080;51.038;7.008;2023-01-28T04:22:06;78317.59;;;-142.53;100.00
4133;BME280;2080;51.038;7.008;2023-01-28T04:24:32;78323.44;;;-142.53;100.00
4133;BME280;2080;51.038;7.008;2023-01-28T04:26:58;78321.47;;;-142.53;100.00
4133;BME280;2080;51.038;7.008;2023-01-28T04:29:23;78317.59;;;-142.53;100.00
4133;BME280;2080;51.038;7.008;2023-01-28T04:31:48;78313.72;;;-142.53;100.00
4133;BME280;2080;51.038;7.008;2023-01-28T04:34:14;78302.06;;;-142.53;100.00
4133;BME280;2080;51.038;7.008;2023-01-28T04:36:39;78298.16;;;-142.53;100.00
4133;BME280;2080;51.038;7.008;2023-01-28T04:39:09;78296.22;;;-142.53;100.00
4133;BME280;2080;51.038;7.008;2023-01-28T04:41:35;78294.28;;;-142.53;100.00
4133;BME280;2080;51.038;7.008;2023-01-28T04:44:00;78296.22;;;-142.53;100.00
4133;BME280;2080;51.038;7.008;2023-01-28T04:46:28;78288.44;;;-142.53;100.00
4133;BME280;2080;51.038;7.008;2023-01-28T04:48:53;78288.44;;;-142.53;100.00
4133;BME280;2080;51.038;7.008;2023-01-28T04:51:18;78288.44;;;-142.53;100.00
4133;BME280;2080;51.038;7.008;2023-01-28T04:53:44;78294.28;;;-142.53;100.00
4133;BME280;2080;51.038;7.008;2023-01-28T04:56:11;78292.34;;;-142.53;100.00
4133;BME280;2080;51.038;7.008;2023-01-28T04:58:39;78272.91;;;-142.53;100.00
4133;BME280;2080;51.038;7.008;2023-01-28T05:01:04;78282.63;;;-142.53;100.00
4133;BME280;2080;51.038;7.008;2023-01-28T05:03:33;78278.72;;;-142.53;100.00
4133;BME280;2080;51.038;7.008;2023-01-28T05:06:01;78267.06;;;-142.53;100.00
4133;BME280;2080;51.038;7.008;2023-01-28T05:08:26;78259.28;;;-142.53;100.00
4133;BME280;2080;51.038;7.008;2023-01-28T05:10:54;78270.97;;;-142.53;100.00
4133;BME280;2080;51.038;7.008;2023-01-28T05:13:22;78270.97;;;-142.53;100.00
4133;BME280;2080;51.038;7.008;2023-01-28T05:15:52;78270.97;;;-142.53;100.00
4133;BME280;2080;51.038;7.008;2023-01-28T05:18:20;78270.97;;;-142.53;100.00
4133;BME280;2080;51.038;7.008;2023-01-28T05:20:47;78253.47;;;-142.53;100.00
4133;BME280;2080;51.038;7.008;2023-01-28T05:23:14;78259.28;;;-142.53;100.00
4133;BME280;2080;51.038;7.008;2023-01-28T05:25:40;78253.47;;;-142.53;100.00
4133;BME280;2080;51.038;7.008;2023-01-28T05:28:05;78255.41;;;-142.53;100.00
4133;BME280;2080;51.038;7.008;2023-01-28T05:30:31;78251.53;;;-142.53;100.00
4133;BME280;2080;51.038;7.008;2023-01-28T05:32:56;78259.28;;;-142.53;100.00
4133;BME280;2080;51.038;7.008;2023-01-28T05:35:24;78255.41;;;-142.53;100.00
4133;BME280;2080;51.038;7.008;2023-01-28T05:37:50;78243.75;;;-142.53;100.00
4133;BME280;2080;51.038;7.008;2023-01-28T05:40:15;78239.88;;;-142.53;100.00
4133;BME280;2080;51.038;7.008;2023-01-28T05:42:41;78232.09;;;-142.53;100.00
4133;BME280;2080;51.038;7.008;2023-01-28T05:45:07;78235.97;;;-142.53;100.00
4133;BME280;2080;51.038;7.008;2023-01-28T05:47:33;78243.75;;;-142.53;100.00
4133;BME280;2080;51.038;7.008;2023-01-28T05:49:58;78243.75;;;-142.53;100.00
4133;BME280;2080;51.038;7.008;2023-01-28T05:52:26;78243.75;;;-142.53;100.00
4133;BME280;2080;51.038;7.008;2023-01-28T05:54:54;78278.72;;;-142.53;100.00
4133;BME280;2080;51.038;7.008;2023-01-28T05:57:24;78278.72;;;-142.53;100.00
4133;BME280;2080;51.038;7.008;2023-01-28T05:59:51;78267.06;;;-142.53;100.00
4133;BME280;2080;51.038;7.008;2023-01-28T06:02:17;78270.97;;;-142.53;100.00
4133;BME280;2080;51.038;7.008;2023-01-28T06:04:42;78272.91;;;-142.53;100.00
4133;BME280;2080;51.038;7.008;2023-01-28T06:07:07;78290.41;;;-142.53;100.00
4133;BME280;2080;51.038;7.008;2023-01-28T06:09:32;78286.50;;;-142.53;100.00
4133;BME280;2080;51.038;7.008;2023-01-28T06:12:00;78286.50;;;-142.53;100.00
4133;BME280;2080;51.038;7.008;2023-01-28T06:14:26;78278.72;;;-142.53;100.00
4133;BME280;2080;51.038;7.008;2023-01-28T06:16:51;78278.72;;;-142.53;100.00
4133;BME280;2080;51.038;7.008;2023-01-28T06:19:19;78276.78;;;-142.53;100.00
4133;BME280;2080;51.038;7.008;2023-01-28T06:21:44;78292.34;;;-142.53;99.39
4133;BME280;2080;51.038;7.008;2023-01-28T06:24:14;78286.50;;;-142.53;98.33
4133;BME280;2080;51.038;7.008;2023-01-28T06:26:40;78294.28;;;-142.53;96.75
4133;BME280;2080;51.038;7.008;2023-01-28T06:29:05;78302.06;;;-142.53;97.51
4133;BME280;2080;51.038;7.008;2023-01-28T06:31:35;78294.28;;;-142.53;98.04
4133;BME280;2080;51.038;7.008;2023-01-28T06:34:03;78282.63;;;-142.53;98.49
4133;BME280;2080;51.038;7.008;2023-01-28T06:36:33;78290.41;;;-142.53;96.52
4133;BME280;2080;51.038;7.008;2023-01-28T06:38:59;78286.50;;;-142.53;96.24
4133;BME280;2080;51.038;7.008;2023-01-28T06:41:24;78302.06;;;-142.53;98.72
4133;BME280;2080;51.038;7.008;2023-01-28T06:43:50;78278.72;;;-142.53;98.29
4133;BME280;2080;51.038;7.008;2023-01-28T06:46:15;78270.97;;;-142.53;99.13
4133;BME280;2080;51.038;7.008;2023-01-28T06:48:40;78276.78;;;-142.53;99.76
4133;BME280;2080;51.038;7.008;2023-01-28T06:51:06;78251.53;;;-142.53;100.00
4133;BME280;2080;51.038;7.008;2023-01-28T06:53:31;78259.28;;;-142.53;99.97
4133;BME280;2080;51.038;7.008;2023-01-28T06:55:56;78270.97;;;-142.53;99.95
4133;BME280;2080;51.038;7.008;2023-01-28T06:58:22;78282.63;;;-142.53;100.00
4133;BME280;2080;51.038;7.008;2023-01-28T07:00:47;78290.41;;;-142.53;99.60
4133;BME280;2080;51.038;7.008;2023-01-28T07:03:12;78294.28;;;-142.53;98.15
4133;BME280;2080;51.038;7.008;2023-01-28T07:05:38;78294.28;;;-142.53;98.88
4133;BME280;2080;51.038;7.008;2023-01-28T07:08:03;78313.72;;;-142.53;96.12
4133;BME280;2080;51.038;7.008;2023-01-28T07:10:31;78321.47;;;-142.53;93.90
4133;BME280;2080;51.038;7.008;2023-01-28T07:12:59;78317.59;;;-142.53;95.93
4133;BME280;2080;51.038;7.008;2023-01-28T07:15:27;78319.53;;;-142.53;95.63
4133;BME280;2080;51.038;7.008;2023-01-28T07:17:53;78309.81;;;-142.53;95.38
4133;BME280;2080;51.038;7.008;2023-01-28T07:20:18;78298.16;;;-142.53;95.81
4133;BME280;2080;51.038;7.008;2023-01-28T07:22:44;78290.41;;;-142.53;95.70
4133;BME280;2080;51.038;7.008;2023-01-28T07:25:11;78280.69;;;-142.53;97.00
4133;BME280;2080;51.038;7.008;2023-01-28T07:27:44;78286.50;;;-142.53;96.82
4133;BME280;2080;51.038;7.008;2023-01-28T07:30:13;78274.84;;;-142.53;95.98
4133;BME280;2080;51.038;7.008;2023-01-28T07:32:38;78274.84;;;-142.53;94.54
4133;BME280;2080;51.038;7.008;2023-01-28T07:35:04;78263.19;;;-142.53;95.92
4133;BME280;2080;51.038;7.008;2023-01-28T07:37:31;78292.34;;;-142.53;93.52
4133;BME280;2080;51.038;7.008;2023-01-28T07:39:57;78265.13;;;-142.53;97.72
4133;BME280;2080;51.038;7.008;2023-01-28T07:42:22;78284.56;;;-142.53;97.01
4133;BME280;2080;51.038;7.008;2023-01-28T07:44:47;78274.84;;;-142.53;96.44
4133;BME280;2080;51.038;7.008;2023-01-28T07:47:13;78282.63;;;-142.53;93.91
4133;BME280;2080;51.038;7.008;2023-01-28T07:49:39;78286.50;;;-142.53;94.39
4133;BME280;2080;51.038;7.008;2023-01-28T07:52:05;78286.50;;;-142.53;95.21
4133;BME280;2080;51.038;7.008;2023-01-28T07:54:30;78294.28;;;-142.53;94.64
4133;BME280;2080;51.038;7.008;2023-01-28T07:56:56;78290.41;;;-142.53;94.69
4133;BME280;2080;51.038;7.008;2023-01-28T07:59:23;78270.97;;;-142.53;95.17
4133;BME280;2080;51.038;7.008;2023-01-28T08:01:49;78270.97;;;-142.53;94.35
4133;BME280;2080;51.038;7.008;2023-01-28T08:04:14;78276.78;;;-142.53;94.46
4133;BME280;2080;51.038;7.008;2023-01-28T08:06:44;78270.97;;;-142.53;94.18
4133;BME280;2080;51.038;7.008;2023-01-28T08:09:10;78270.97;;;-142.53;94.67
4133;BME280;2080;51.038;7.008;2023-01-28T08:11:38;78263.19;;;-142.53;96.52
4133;BME280;2080;51.038;7.008;2023-01-28T08:14:04;78282.63;;;-142.53;92.28
4133;BME280;2080;51.038;7.008;2023-01-28T08:16:34;78290.41;;;-142.53;90.44
4133;BME280;2080;51.038;7.008;2023-01-28T08:19:00;78290.41;;;-142.53;88.66
4133;BME280;2080;51.038;7.008;2023-01-28T08:21:25;78282.63;;;-142.53;89.47
4133;BME280;2080;51.038;7.008;2023-01-28T08:23:53;78278.72;;;-142.53;89.86
4133;BME280;2080;51.038;7.008;2023-01-28T08:26:22;78286.50;;;-142.53;89.32
4133;BME280;2080;51.038;7.008;2023-01-28T08:28:47;78278.72;;;-142.53;91.50
4133;BME280;2080;51.038;7.008;2023-01-28T08:31:15;78270.97;;;-142.53;91.18
4133;BME280;2080;51.038;7.008;2023-01-28T08:33:43;78261.25;;;-142.53;89.58
4133;BME280;2080;51.038;7.008;2023-01-28T08:36:08;78270.97;;;-142.53;88.47
4133;BME280;2080;51.038;7.008;2023-01-28T08:38:33;78270.97;;;-142.53;88.99
4133;BME280;2080;51.038;7.008;2023-01-28T08:40:59;78251.53;;;-142.53;88.99
4133;BME280;2080;51.038;7.008;2023-01-28T08:43:24;78251.53;;;-142.53;89.22
4133;BME280;2080;51.038;7.008;2023-01-28T08:45:50;78263.19;;;-142.53;88.75
4133;BME280;2080;51.038;7.008;2023-01-28T08:48:18;78255.41;;;-142.53;89.14
4133;BME280;2080;51.038;7.008;2023-01-28T08:50:44;78278.72;;;-142.53;86.71
4133;BME280;2080;51.038;7.008;2023-01-28T08:53:13;78270.97;;;-142.53;88.17
4133;BME280;2080;51.038;7.008;2023-01-28T08:55:38;78255.41;;;-142.53;89.31
4133;BME280;2080;51.038;7.008;2023-01-28T08:58:05;78243.75;;;-142.53;89.92
4133;BME280;2080;51.038;7.008;2023-01-28T09:00:32;78235.97;;;-142.53;88.87
4133;BME280;2080;51.038;7.008;2023-01-28T09:02:58;78255.41;;;-142.53;85.96
4133;BME280;2080;51.038;7.008;2023-01-28T09:05:23;78270.97;;;-142.53;85.53
4133;BME280;2080;51.038;7.008;2023-01-28T09:07:51;78251.53;;;-142.53;87.52
4133;BME280;2080;51.038;7.008;2023-01-28T09:10:17;78243.75;;;-142.53;88.34
4133;BME280;2080;51.038;7.008;2023-01-28T09:12:45;78239.88;;;-142.53;87.60
4133;BME280;2080;51.038;7.008;2023-01-28T09:15:13;78230.16;;;-142.53;89.02
4133;BME280;2080;51.038;7.008;2023-01-28T09:17:38;78228.19;;;-142.53;86.52
4133;BME280;2080;51.038;7.008;2023-01-28T09:20:05;78237.91;;;-142.53;84.93
4133;BME280;2080;51.038;7.008;2023-01-28T09:22:32;78243.75;;;-142.53;86.20
4133;BME280;2080;51.038;7.008;2023-01-28T09:24:57;78245.69;;;-142.53;85.37
4133;BME280;2080;51.038;7.008;2023-01-28T09:27:23;78243.75;;;-142.53;85.93
4133;BME280;2080;51.038;7.008;2023-01-28T09:29:50;78247.63;;;-142.53;85.23
4133;BME280;2080;51.038;7.008;2023-01-28T09:32:18;78290.41;;;-142.53;81.05
4133;BME280;2080;51.038;7.008;2023-01-28T09:34:46;78298.16;;;-142.53;81.46
4133;BME280;2080;51.038;7.008;2023-01-28T09:37:11;78274.84;;;-142.53;82.38
4133;BME280;2080;51.038;7.008;2023-01-28T09:39:37;78270.97;;;-142.53;82.58
4133;BME280;2080;51.038;7.008;2023-01-28T09:42:18;78267.06;;;-142.53;83.91
4133;BME280;2080;51.038;7.008;2023-01-28T09:50:07;78329.25;;;-142.53;80.30
4133;BME280;2080;51.038;7.008;2023-01-28T09:52:36;78350.63;;;-142.53;79.25
4133;BME280;2080;51.038;7.008;2023-01-28T09:55:14;78321.47;;;-142.53;77.69
4133;BME280;2080;51.038;7.008;2023-01-28T10:00:21;78375.91;;;-142.53;79.22
4133;BME280;2080;51.038;7.008;2023-01-28T10:02:57;78346.75;;;-142.53;81.08
4133;BME280;2080;51.038;7.008;2023-01-28T10:05:28;78290.41;;;-142.53;80.54
4133;BME280;2080;51.038;7.008;2023-01-28T10:15:03;78305.94;;;-142.53;74.69
4133;BME280;2080;51.038;7.008;2023-01-28T10:17:11;78294.28;;;-142.53;76.22
4133;BME280;2080;51.038;7.008;2023-01-28T10:19:44;78274.84;;;-142.53;76.26
4133;BME280;2080;51.038;7.008;2023-01-28T10:22:15;78251.53;;;-142.53;77.13
4133;BME280;2080;51.038;7.008;2023-01-28T10:24:47;78267.06;;;-142.53;78.19
4133;BME280;2080;51.038;7.008;2023-01-28T10:27:20;78292.34;;;-142.53;74.91
4133;BME280;2080;51.038;7.008;2023-01-28T10:29:48;78307.88;;;-142.53;74.04
4133;BME280;2080;51.038;7.008;2023-01-28T10:32:20;78315.66;;;-142.53;74.91
4133;BME280;2080;51.038;7.008;2023-01-28T10:34:48;78309.81;;;-142.53;75.49
4133;BME280;2080;51.038;7.008;2023-01-28T10:37:16;78296.22;;;-142.53;77.09
4133;BME280;2080;51.038;7.008;2023-01-28T10:39:47;78294.28;;;-142.53;75.47
4133;BME280;2080;51.038;7.008;2023-01-28T10:42:22;78317.59;;;-142.53;75.82
4133;BME280;2080;51.038;7.008;2023-01-28T10:44:51;78304.00;;;-142.53;76.79
4133;BME280;2080;51.038;7.008;2023-01-28T10:47:28;78317.59;;;-142.53;77.77
4133;BME280;2080;51.038;7.008;2023-01-28T10:49:59;78290.41;;;-142.53;79.37
4133;BME280;2080;51.038;7.008;2023-01-28T10:52:25;78313.72;;;-142.53;75.81
4133;BME280;2080;51.038;7.008;2023-01-28T10:55:01;78280.69;;;-142.53;73.91
4133;BME280;2080;51.038;7.008;2023-01-28T10:57:28;78278.72;;;-142.53;73.72
4133;BME280;2080;51.038;7.008;2023-01-28T10:59:53;78296.22;;;-142.53;74.98
4133;BME280;2080;51.038;7.008;2023-01-28T11:02:29;78317.59;;;-142.53;74.20
4133;BME280;2080;51.038;7.008;2023-01-28T11:05:29;78307.88;;;-142.53;75.01
4133;BME280;2080;51.038;7.008;2023-01-28T11:08:16;78294.28;;;-142.53;73.11
4133;BME280;2080;51.038;7.008;2023-01-28T11:10:45;78315.66;;;-142.53;73.49
4133;BME280;2080;51.038;7.008;2023-01-28T11:13:26;78356.47;;;-142.53;75.20
4133;BME280;2080;51.038;7.008;2023-01-28T11:18:22;78375.91;;;-142.53;75.89
4133;BME280;2080;51.038;7.008;2023-01-28T11:20:58;78372.00;;;-142.53;75.55
4133;BME280;2080;51.038;7.008;2023-01-28T11:23:27;78331.19;;;-142.53;75.42
4133;BME280;2080;51.038;7.008;2023-01-28T11:26:03;78381.72;;;-142.53;76.38
4133;BME280;2080;51.038;7.008;2023-01-28T11:28:29;78329.25;;;-142.53;77.15
4133;BME280;2080;51.038;7.008;2023-01-28T11:30:57;78317.59;;;-142.53;76.50
4133;BME280;2080;51.038;7.008;2023-01-28T11:33:37;78327.31;;;-142.53;74.37
4133;BME280;2080;51.038;7.008;2023-01-28T11:39:15;78387.56;;;-142.53;73.38
4133;BME280;2080;51.038;7.008;2023-01-28T11:41:36;78360.34;;;-142.53;74.69
4133;BME280;2080;51.038;7.008;2023-01-28T11:52:31;78321.47;;;-142.53;73.66
4133;BME280;2080;51.038;7.008;2023-01-28T11:55:21;78286.50;;;-142.53;74.00
4133;BME280;2080;51.038;7.008;2023-01-28T12:00:27;78313.72;;;-142.53;72.91
4133;BME280;2080;51.038;7.008;2023-01-28T12:05:48;78298.16;;;-142.53;73.90
4133;BME280;2080;51.038;7.008;2023-01-28T12:08:23;78305.94;;;-142.53;74.67
4133;BME280;2080;51.038;7.008;2023-01-28T12:17:30;78232.09;;;-142.53;71.35
4133;BME280;2080;51.038;7.008;2023-01-28T12:36:51;78263.19;;;-142.53;69.20
4133;BME280;2080;51.038;7.008;2023-01-28T12:47:38;78218.47;;;-142.53;68.96
4133;BME280;2080;51.038;7.008;2023-01-28T12:50:29;78224.31;;;-142.53;69.53
4133;BME280;2080;51.038;7.008;2023-01-28T12:53:03;78228.19;;;-142.53;68.03
4133;BME280;2080;51.038;7.008;2023-01-28T12:55:38;78185.44;;;-142.53;69.32
4133;BME280;2080;51.038;7.008;2023-01-28T12:58:12;78234.03;;;-142.53;65.24
4133;BME280;2080;51.038;7.008;2023-01-28T13:00:45;78239.88;;;-142.53;68.88
4133;BME280;2080;51.038;7.008;2023-01-28T13:03:36;78206.81;;;-142.53;69.07
4133;BME280;2080;51.038;7.008;2023-01-28T13:06:12;78232.09;;;-142.53;65.28
4133;BME280;2080;51.038;7.008;2023-01-28T13:08:42;78154.34;;;-142.53;68.40
4133;BME280;2080;51.038;7.008;2023-01-28T13:11:13;78150.47;;;-142.53;67.11
4133;BME280;2080;51.038;7.008;2023-01-28T13:13:41;78154.34;;;-142.53;61.95
4133;BME280;2080;51.038;7.008;2023-01-28T13:16:10;78134.94;;;-142.53;63.05
4133;BME280;2080;51.038;7.008;2023-01-28T13:21:05;78084.41;;;-142.53;58.73
4133;BME280;2080;51.038;7.008;2023-01-28T13:28:53;78045.53;;;-142.53;62.20
4133;BME280;2080;51.038;7.008;2023-01-28T13:31:22;78053.31;;;-142.53;63.52
4133;BME280;2080;51.038;7.008;2023-01-28T13:36:32;78020.28;;;-142.53;66.37
4133;BME280;2080;51.038;7.008;2023-01-28T13:39:14;78033.88;;;-142.53;65.82
4133;BME280;2080;51.038;7.008;2023-01-28T13:41:48;78037.75;;;-142.53;67.93
4133;BME280;2080;51.038;7.008;2023-01-28T13:44:31;78072.75;;;-142.53;65.28
4133;BME280;2080;51.038;7.008;2023-01-28T13:49:41;78154.34;;;-142.53;62.25
4133;BME280;2080;51.038;7.008;2023-01-28T13:54:39;78150.47;;;-142.53;59.26
4133;BME280;2080;51.038;7.008;2023-01-28T14:18:53;78201.00;;;-142.53;59.63
4133;BME280;2080;51.038;7.008;2023-01-28T14:21:21;78212.66;;;-142.53;60.59
4133;BME280;2080;51.038;7.008;2023-01-28T14:23:49;78173.78;;;-142.53;62.04
4133;BME280;2080;51.038;7.008;2023-01-28T14:28:59;78216.53;;;-142.53;62.83
4133;BME280;2080;51.038;7.008;2023-01-28T14:31:30;78239.88;;;-142.53;61.17
4133;BME280;2080;51.038;7.008;2023-01-28T14:34:09;78237.91;;;-142.53;61.84
4133;BME280;2080;51.038;7.008;2023-01-28T14:36:43;78239.88;;;-142.53;62.12
4133;BME280;2080;51.038;7.008;2023-01-28T14:39:17;78253.47;;;-142.53;65.69
4133;BME280;2080;51.038;7.008;2023-01-28T14:41:49;78263.19;;;-142.53;65.77
4133;BME280;2080;51.038;7.008;2023-01-28T14:44:42;78267.06;;;-142.53;63.19
4133;BME280;2080;51.038;7.008;2023-01-28T14:47:33;78290.41;;;-142.53;70.00
4133;BME280;2080;51.038;7.008;2023-01-28T14:58:16;78327.31;;;-142.53;70.41
4133;BME280;2080;51.038;7.008;2023-01-28T15:00:56;78329.25;;;-142.53;73.88
4133;BME280;2080;51.038;7.008;2023-01-28T15:03:25;78325.38;;;-142.53;76.39
4133;BME280;2080;51.038;7.008;2023-01-28T15:08:36;78321.47;;;-142.53;80.20
4133;BME280;2080;51.038;7.008;2023-01-28T15:11:04;78309.81;;;-142.53;83.63
4133;BME280;2080;51.038;7.008;2023-01-28T15:13:37;78288.44;;;-142.53;83.80
4133;BME280;2080;51.038;7.008;2023-01-28T15:16:05;78265.13;;;-142.53;82.25
4133;BME280;2080;51.038;7.008;2023-01-28T15:20:59;78290.41;;;-142.53;83.99
4133;BME280;2080;51.038;7.008;2023-01-28T15:23:30;78286.50;;;-142.53;85.41
4133;BME280;2080;51.038;7.008;2023-01-28T15:25:57;78305.94;;;-142.53;83.79
4133;BME280;2080;51.038;7.008;2023-01-28T15:28:30;78302.06;;;-142.53;80.83
4133;BME280;2080;51.038;7.008;2023-01-28T15:30:57;78317.59;;;-142.53;79.93
4133;BME280;2080;51.038;7.008;2023-01-28T15:33:25;78337.03;;;-142.53;79.17